Time;durP1;ratioP1;P1;durP2;ratioP2;P2;SDS_P1;SDS_P2;PMS_P1;PMS_P2;Temp;Humidity;BMP_temperature;BMP_pressure;BME280_temperature;BME280_humidity;BME280_pressure;Samples;Min_cycle;Max_cycle;Signal;HPM_P1;HPM_P2
2023/08/18 00:00:07;;;;;;;6.10;5.60;;;20.20;99.90;;;;;;5089257;28;20443;-68
2023/08/18 00:02:34;;;;;;;5.97;5.47;;;20.20;99.90;;;;;;5087510;28;20474;-66
2023/08/18 00:05:02;;;;;;;6.73;6.17;;;20.10;99.90;;;;;;5089582;28;20443;-68
2023/08/18 00:07:28;;;;;;;7.70;7.10;;;20.00;99.90;;;;;;5088550;28;20920;-68
2023/08/18 00:09:55;;;;;;;6.57;6.07;;;20.10;99.90;;;;;;5089540;28;20525;-67
2023/08/18 00:12:23;;;;;;;5.97;5.47;;;20.00;99.90;;;;;;5089163;28;20849;-68
2023/08/18 00:14:51;;;;;;;6.23;5.63;;;20.00;99.90;;;;;;5088846;28;20457;-68
2023/08/18 00:17:18;;;;;;;6.60;6.00;;;20.00;99.90;;;;;;5088331;28;20447;-68
2023/08/18 00:19:45;;;;;;;5.97;5.50;;;20.00;99.90;;;;;;5088936;28;20464;-68
2023/08/18 00:22:12;;;;;;;7.30;6.70;;;19.90;99.90;;;;;;5088765;28;20469;-67
2023/08/18 00:24:39;;;;;;;6.23;5.43;;;19.90;99.90;;;;;;5088970;28;20446;-68
2023/08/18 00:27:06;;;;;;;5.90;5.40;;;19.90;99.90;;;;;;5087954;28;21257;-68
2023/08/18 00:29:34;;;;;;;5.63;5.13;;;19.90;99.90;;;;;;5088665;28;20820;-68
2023/08/18 00:32:01;;;;;;;9.50;7.43;;;19.90;99.90;;;;;;5088655;28;21046;-68
2023/08/18 00:34:28;;;;;;;6.87;6.27;;;19.80;99.90;;;;;;5088876;28;20451;-68
2023/08/18 00:36:56;;;;;;;6.23;5.73;;;19.80;99.90;;;;;;5087871;28;21048;-67
2023/08/18 00:39:23;;;;;;;6.77;6.17;;;19.80;99.90;;;;;;5088762;28;20456;-68
2023/08/18 00:41:50;;;;;;;5.90;5.50;;;19.80;99.90;;;;;;5088509;28;20576;-68
2023/08/18 00:44:16;;;;;;;6.13;5.73;;;19.70;99.90;;;;;;5088450;28;20450;-68
2023/08/18 00:46:45;;;;;;;5.10;4.77;;;19.70;99.90;;;;;;5087747;28;20485;-68
2023/08/18 00:49:16;;;;;;;5.20;4.80;;;19.70;99.90;;;;;;5088201;28;20547;-68
2023/08/18 00:51:43;;;;;;;5.30;4.90;;;19.70;99.90;;;;;;5088360;28;20481;-68
2023/08/18 00:54:12;;;;;;;7.20;5.80;;;19.70;99.90;;;;;;5088346;28;20530;-68
2023/08/18 00:56:39;;;;;;;5.30;4.90;;;19.70;99.90;;;;;;5087711;28;20457;-68
2023/08/18 00:59:07;;;;;;;5.37;4.87;;;19.70;99.90;;;;;;5088407;28;20447;-68
2023/08/18 01:01:35;;;;;;;6.70;5.50;;;19.60;99.90;;;;;;5086662;28;20503;-68
2023/08/18 01:04:05;;;;;;;6.97;5.60;;;19.60;99.90;;;;;;5088320;28;20450;-68
2023/08/18 01:06:32;;;;;;;5.70;5.30;;;19.60;99.90;;;;;;5087508;28;20541;-68
2023/08/18 01:08:59;;;;;;;6.73;6.20;;;19.60;99.90;;;;;;5088151;28;20489;-68
2023/08/18 01:11:34;;;;;;;6.07;5.67;;;19.60;99.90;;;;;;5087950;28;20493;-68
2023/08/18 01:14:08;;;;;;;7.83;4.73;;;19.50;99.90;;;;;;5088449;28;20456;-68
2023/08/18 01:16:37;;;;;;;7.57;4.80;;;19.50;99.90;;;;;;5087373;28;21022;-68
2023/08/18 01:19:10;;;;;;;5.07;4.67;;;19.50;99.90;;;;;;5088056;28;20446;-68
2023/08/18 01:21:38;;;;;;;5.67;5.27;;;19.50;99.90;;;;;;5087949;28;21039;-69
2023/08/18 01:24:07;;;;;;;8.60;5.47;;;19.40;99.90;;;;;;5087941;28;20542;-68
2023/08/18 01:26:34;;;;;;;6.43;6.03;;;19.40;99.90;;;;;;5087481;28;20980;-68
2023/08/18 01:29:01;;;;;;;5.87;5.03;;;19.40;99.90;;;;;;5087948;28;20517;-69
2023/08/18 01:31:33;;;;;;;7.23;6.07;;;19.40;99.90;;;;;;5087898;28;20469;-68
2023/08/18 01:34:05;;;;;;;5.23;4.73;;;19.40;99.90;;;;;;5087574;28;20815;-68
2023/08/18 01:36:37;;;;;;;5.60;5.10;;;19.40;99.90;;;;;;5086129;28;20537;-68
2023/08/18 01:39:07;;;;;;;6.93;6.30;;;19.30;99.90;;;;;;5086160;28;20452;-68
2023/08/18 01:41:35;;;;;;;5.67;5.17;;;19.30;99.90;;;;;;5082132;28;20440;-68
2023/08/18 01:44:02;;;;;;;5.40;5.00;;;19.30;99.90;;;;;;5091108;28;21088;-69
2023/08/18 01:46:29;;;;;;;5.03;4.73;;;19.30;99.90;;;;;;5090988;28;20463;-68
2023/08/18 01:48:56;;;;;;;4.97;4.40;;;19.20;99.90;;;;;;5091407;28;21072;-68
2023/08/18 01:51:22;;;;;;;6.10;4.67;;;19.20;99.90;;;;;;5091458;28;20450;-68
2023/08/18 01:53:49;;;;;;;5.07;4.60;;;19.10;99.90;;;;;;5080279;28;20509;-68
2023/08/18 01:56:18;;;;;;;6.10;5.70;;;19.10;99.90;;;;;;5070917;28;20771;-68
2023/08/18 01:58:43;;;;;;;5.67;5.20;;;19.10;99.90;;;;;;5071584;28;20952;-68
2023/08/18 02:01:10;;;;;;;5.07;4.67;;;19.00;99.90;;;;;;5069621;28;20446;-68
2023/08/18 02:03:37;;;;;;;7.17;5.27;;;19.00;99.90;;;;;;5070997;28;20235;-68
2023/08/18 02:06:04;;;;;;;5.23;4.77;;;19.00;99.90;;;;;;5070424;28;20447;-68
2023/08/18 02:08:31;;;;;;;8.10;5.17;;;19.00;99.90;;;;;;5071040;28;21006;-68
2023/08/18 02:11:02;;;;;;;5.27;4.83;;;18.90;99.90;;;;;;5071223;28;20514;-69
2023/08/18 02:13:30;;;;;;;5.23;4.83;;;18.90;99.90;;;;;;5071083;28;20836;-68
2023/08/18 02:15:57;;;;;;;5.97;5.40;;;18.90;99.90;;;;;;5070878;28;20566;-67
2023/08/18 02:18:24;;;;;;;5.80;5.30;;;18.80;99.90;;;;;;5071050;28;20534;-68
2023/08/18 02:20:55;;;;;;;5.73;5.17;;;18.80;99.90;;;;;;5071088;28;20447;-68
2023/08/18 02:23:22;;;;;;;6.10;5.60;;;18.80;99.90;;;;;;5071146;28;20470;-68
2023/08/18 02:25:49;;;;;;;6.10;5.40;;;18.80;99.90;;;;;;5071033;28;20545;-68
2023/08/18 02:28:17;;;;;;;6.83;5.17;;;18.70;99.90;;;;;;5070683;28;20574;-68
2023/08/18 02:30:46;;;;;;;5.00;4.60;;;18.70;99.90;;;;;;5071049;28;20465;-68
2023/08/18 02:33:12;;;;;;;5.67;5.10;;;18.70;99.90;;;;;;5070942;28;20986;-68
2023/08/18 02:35:44;;;;;;;5.00;4.53;;;18.70;99.90;;;;;;5070854;28;20450;-68
2023/08/18 02:38:14;;;;;;;7.23;4.80;;;18.60;99.90;;;;;;5069974;28;20533;-68
2023/08/18 02:40:41;;;;;;;6.30;5.00;;;18.60;99.90;;;;;;5070630;28;20537;-68
2023/08/18 02:43:08;;;;;;;6.67;5.53;;;18.60;99.90;;;;;;5070427;28;20561;-68
2023/08/18 02:45:35;;;;;;;6.00;5.57;;;18.60;99.90;;;;;;5070814;28;20453;-68
2023/08/18 02:48:04;;;;;;;4.93;4.53;;;18.60;99.90;;;;;;5079242;28;20485;-68
2023/08/18 02:50:31;;;;;;;5.70;5.10;;;18.50;99.90;;;;;;5082094;28;21128;-68
2023/08/18 02:53:00;;;;;;;6.50;5.40;;;18.50;99.90;;;;;;5070491;28;20557;-68
2023/08/18 02:55:27;;;;;;;5.07;4.67;;;18.50;99.90;;;;;;5070393;28;20474;-68
2023/08/18 02:57:54;;;;;;;5.50;5.00;;;18.50;99.90;;;;;;5069717;28;20449;-68
2023/08/18 03:00:21;;;;;;;4.50;4.10;;;18.40;99.90;;;;;;5070418;28;20459;-68
2023/08/18 03:02:49;;;;;;;4.97;4.47;;;18.40;99.90;;;;;;5068437;28;20525;-68
2023/08/18 03:05:17;;;;;;;8.57;4.80;;;18.40;99.90;;;;;;5070149;28;21037;-68
2023/08/18 03:07:44;;;;;;;5.57;4.83;;;18.40;99.90;;;;;;5069370;28;20457;-69
2023/08/18 03:10:11;;;;;;;4.90;4.60;;;18.40;99.90;;;;;;5070378;28;20462;-68
2023/08/18 03:12:38;;;;;;;4.20;3.90;;;18.40;99.90;;;;;;5070072;28;20476;-68
2023/08/18 03:15:06;;;;;;;4.60;4.30;;;18.40;99.90;;;;;;5070083;28;20446;-68
2023/08/18 03:17:32;;;;;;;4.83;4.33;;;18.30;99.90;;;;;;5069264;28;20450;-68
2023/08/18 03:19:59;;;;;;;4.70;4.30;;;18.30;99.90;;;;;;5070145;28;20458;-68
2023/08/18 03:22:28;;;;;;;4.80;4.40;;;18.30;99.90;;;;;;5070153;28;20470;-68
2023/08/18 03:24:55;;;;;;;6.50;4.60;;;18.30;99.90;;;;;;5070113;28;20456;-68
2023/08/18 03:27:22;;;;;;;7.30;4.83;;;18.20;99.90;;;;;;5069116;28;20454;-68
2023/08/18 03:29:49;;;;;;;5.20;4.70;;;18.20;99.90;;;;;;5066989;28;20545;-68
2023/08/18 03:32:15;;;;;;;5.10;4.67;;;18.20;99.90;;;;;;5069432;28;20486;-68
2023/08/18 03:34:42;;;;;;;4.40;4.00;;;18.20;99.90;;;;;;5069633;28;20458;-68
2023/08/18 03:37:10;;;;;;;4.97;4.20;;;18.20;99.90;;;;;;5068855;28;20460;-68
2023/08/18 03:39:38;;;;;;;5.27;4.87;;;18.20;99.90;;;;;;5069940;28;20535;-68
2023/08/18 03:42:05;;;;;;;4.37;3.97;;;18.20;99.90;;;;;;5069683;28;20479;-68
2023/08/18 03:44:32;;;;;;;6.10;4.83;;;18.20;99.90;;;;;;5069843;28;20450;-68
2023/08/18 03:46:59;;;;;;;5.67;5.17;;;18.20;99.90;;;;;;5068666;28;21010;-68
2023/08/18 03:49:25;;;;;;;5.30;4.90;;;18.10;99.90;;;;;;5069349;28;20490;-68
2023/08/18 03:51:52;;;;;;;5.67;4.90;;;18.10;99.90;;;;;;5069004;28;20480;-68
2023/08/18 03:54:19;;;;;;;5.27;4.87;;;18.10;99.90;;;;;;5069441;28;20457;-68
2023/08/18 03:56:47;;;;;;;6.23;4.47;;;18.10;99.90;;;;;;5068713;28;20465;-68
2023/08/18 03:59:14;;;;;;;4.43;4.13;;;18.10;99.90;;;;;;5069245;28;20442;-68
2023/08/18 04:01:41;;;;;;;6.20;4.80;;;18.10;99.90;;;;;;5067214;28;20474;-68
2023/08/18 04:04:08;;;;;;;6.70;4.90;;;18.10;99.90;;;;;;5068537;28;20457;-68
2023/08/18 04:06:34;;;;;;;4.87;4.47;;;18.10;99.90;;;;;;5068265;28;20454;-68
2023/08/18 04:09:07;;;;;;;5.20;4.50;;;18.10;99.90;;;;;;5068954;28;20511;-68
2023/08/18 04:11:34;;;;;;;4.83;4.47;;;18.10;99.90;;;;;;5069077;28;21251;-68
2023/08/18 04:14:04;;;;;;;5.87;5.27;;;18.00;99.90;;;;;;5069031;28;20485;-68
2023/08/18 04:16:31;;;;;;;8.47;5.23;;;18.00;99.90;;;;;;5068201;28;20501;-68
2023/08/18 04:18:58;;;;;;;6.03;4.43;;;18.00;99.90;;;;;;5068637;28;20939;-68
2023/08/18 04:21:25;;;;;;;7.23;4.23;;;18.00;99.90;;;;;;5068626;28;20458;-68
2023/08/18 04:23:52;;;;;;;5.10;4.60;;;18.00;99.90;;;;;;5068612;28;20454;-68
2023/08/18 04:26:19;;;;;;;4.87;4.47;;;18.00;99.90;;;;;;5067561;28;20487;-68
2023/08/18 04:28:46;;;;;;;5.43;5.00;;;18.00;99.90;;;;;;5068657;28;20960;-68
2023/08/18 04:31:14;;;;;;;5.07;3.97;;;18.00;99.90;;;;;;5068517;28;20462;-69
2023/08/18 04:33:41;;;;;;;6.73;4.97;;;18.00;99.90;;;;;;5068532;28;20466;-68
2023/08/18 04:36:07;;;;;;;6.63;4.87;;;18.00;99.90;;;;;;5067860;28;20475;-68
2023/08/18 04:38:34;;;;;;;6.93;4.70;;;18.00;99.90;;;;;;5068423;28;20948;-68
2023/08/18 04:41:03;;;;;;;10.00;4.73;;;18.00;99.90;;;;;;5068663;28;20453;-68
2023/08/18 04:43:31;;;;;;;5.83;5.13;;;18.10;99.90;;;;;;5068380;28;20499;-68
2023/08/18 04:45:58;;;;;;;5.73;4.70;;;18.00;99.90;;;;;;5067638;28;20534;-68
2023/08/18 04:48:27;;;;;;;4.77;4.47;;;18.10;99.90;;;;;;5068260;28;20490;-68
2023/08/18 04:50:53;;;;;;;5.20;4.80;;;18.10;99.90;;;;;;5068287;28;20451;-68
2023/08/18 04:53:20;;;;;;;4.97;4.57;;;18.10;99.90;;;;;;5067980;28;21022;-68
2023/08/18 04:55:47;;;;;;;4.40;4.00;;;18.00;99.90;;;;;;5068267;28;20458;-68
2023/08/18 04:58:15;;;;;;;6.27;5.03;;;18.10;99.90;;;;;;5067823;28;20458;-68
2023/08/18 05:00:42;;;;;;;5.67;4.50;;;18.10;99.90;;;;;;5068251;28;20460;-68
2023/08/18 05:03:09;;;;;;;5.03;4.47;;;18.10;99.90;;;;;;5066404;28;20502;-68
2023/08/18 05:05:39;;;;;;;4.20;3.90;;;18.10;99.90;;;;;;5068151;28;20465;-68
2023/08/18 05:08:06;;;;;;;5.67;5.17;;;18.10;99.90;;;;;;5067452;28;20450;-68
2023/08/18 05:10:33;;;;;;;4.60;4.20;;;18.10;99.90;;;;;;5068022;28;20443;-68
2023/08/18 05:13:00;;;;;;;5.67;5.20;;;18.10;99.90;;;;;;5067799;28;21070;-69
2023/08/18 05:15:27;;;;;;;7.23;4.60;;;18.10;99.90;;;;;;5066995;28;20463;-68
2023/08/18 05:17:54;;;;;;;5.63;5.13;;;18.10;99.90;;;;;;5067007;28;20534;-68
2023/08/18 05:20:20;;;;;;;5.40;5.00;;;18.10;99.90;;;;;;5067731;28;20936;-68
2023/08/18 05:22:48;;;;;;;5.17;4.77;;;18.10;99.90;;;;;;5067781;28;20481;-68
2023/08/18 05:25:16;;;;;;;4.00;3.70;;;18.10;99.90;;;;;;5067816;28;20451;-68
2023/08/18 05:27:43;;;;;;;6.20;4.80;;;18.10;99.90;;;;;;5067018;28;20455;-69
2023/08/18 05:30:10;;;;;;;4.60;4.20;;;18.10;99.90;;;;;;5067661;28;20494;-68
2023/08/18 05:32:37;;;;;;;4.30;4.00;;;18.20;99.90;;;;;;5067606;28;20479;-68
2023/08/18 05:35:04;;;;;;;7.33;4.23;;;18.20;99.90;;;;;;5067629;28;20445;-68
2023/08/18 05:37:31;;;;;;;5.20;4.37;;;18.20;99.90;;;;;;5066254;28;20541;-68
2023/08/18 05:39:59;;;;;;;5.03;4.53;;;18.20;99.90;;;;;;5067349;28;20824;-68
2023/08/18 05:42:28;;;;;;;5.80;5.17;;;18.30;99.90;;;;;;5067524;28;20505;-68
2023/08/18 05:44:54;;;;;;;4.10;3.63;;;18.30;99.90;;;;;;5067411;28;20558;-69
2023/08/18 05:47:21;;;;;;;5.33;4.83;;;18.40;99.90;;;;;;5066992;28;20456;-68
2023/08/18 05:49:48;;;;;;;4.40;4.10;;;18.40;99.90;;;;;;5067494;28;20483;-68
2023/08/18 05:52:15;;;;;;;6.57;5.93;;;18.50;99.90;;;;;;5067778;28;20474;-68
2023/08/18 05:54:42;;;;;;;6.50;4.93;;;18.60;99.90;;;;;;5067375;28;20450;-68
2023/08/18 05:57:10;;;;;;;7.33;4.33;;;18.70;99.90;;;;;;5067040;28;20447;-68
2023/08/18 05:59:37;;;;;;;5.43;4.93;;;18.80;99.90;;;;;;5067687;28;20451;-68
2023/08/18 06:02:04;;;;;;;6.17;4.43;;;18.90;99.90;;;;;;5065714;28;20482;-68
2023/08/18 06:04:31;;;;;;;4.50;4.20;;;19.10;99.90;;;;;;5067639;28;20451;-68
2023/08/18 06:06:59;;;;;;;4.43;4.07;;;19.20;99.90;;;;;;5066736;28;20453;-68
2023/08/18 06:09:26;;;;;;;5.37;4.20;;;19.30;99.90;;;;;;5067181;28;20582;-68
2023/08/18 06:11:53;;;;;;;4.80;4.50;;;19.50;99.90;;;;;;5067371;28;20565;-68
2023/08/18 06:14:21;;;;;;;4.40;4.10;;;19.60;99.90;;;;;;5067396;28;20899;-68
2023/08/18 06:16:48;;;;;;;5.83;5.33;;;19.70;99.90;;;;;;5066350;28;20453;-68
2023/08/18 06:19:15;;;;;;;5.50;5.00;;;19.90;99.90;;;;;;5067383;28;20466;-68
2023/08/18 06:21:41;;;;;;;4.13;3.73;;;20.10;99.90;;;;;;5067175;28;20461;-68
2023/08/18 06:24:09;;;;;;;4.93;4.43;;;20.20;99.90;;;;;;5066942;28;20451;-68
2023/08/18 06:26:36;;;;;;;4.90;4.40;;;20.30;99.90;;;;;;5067484;28;20448;-68
2023/08/18 06:29:03;;;;;;;4.57;3.70;;;20.50;99.90;;;;;;5071204;28;20495;-68
2023/08/18 06:31:31;;;;;;;5.03;4.30;;;20.70;99.90;;;;;;5070501;28;20470;-68
2023/08/18 06:33:58;;;;;;;4.40;4.07;;;20.80;99.90;;;;;;5070824;28;20455;-68
2023/08/18 06:36:24;;;;;;;5.00;4.50;;;21.00;99.90;;;;;;5069846;28;20481;-68
2023/08/18 06:38:51;;;;;;;6.40;4.60;;;21.20;99.90;;;;;;5070496;28;20445;-68
2023/08/18 06:41:18;;;;;;;7.13;4.80;;;21.30;99.90;;;;;;5070563;28;20453;-66
2023/08/18 06:43:45;;;;;;;5.33;4.93;;;21.40;99.90;;;;;;5070566;28;20449;-67
2023/08/18 06:46:12;;;;;;;4.43;4.13;;;21.60;99.90;;;;;;5069439;28;20454;-65
2023/08/18 06:48:40;;;;;;;4.90;4.33;;;21.70;99.90;;;;;;5070012;28;20456;-66
2023/08/18 06:51:07;;;;;;;5.10;4.33;;;21.90;99.90;;;;;;5074876;28;20439;-66
2023/08/18 06:53:34;;;;;;;5.23;4.90;;;22.00;99.90;;;;;;5090283;28;20464;-66
2023/08/18 06:56:02;;;;;;;4.27;3.87;;;22.10;99.90;;;;;;5090028;28;20507;-65
2023/08/18 06:58:28;;;;;;;4.03;3.73;;;22.30;99.90;;;;;;5091021;28;20445;-66
2023/08/18 07:00:55;;;;;;;4.73;3.87;;;22.40;99.90;;;;;;5088879;28;20532;-67
2023/08/18 07:03:22;;;;;;;5.47;4.47;;;22.50;99.90;;;;;;5090528;28;20483;-66
2023/08/18 07:05:50;;;;;;;4.20;3.80;;;22.60;99.90;;;;;;5090480;28;20443;-66
2023/08/18 07:08:17;;;;;;;4.93;4.63;;;22.80;99.90;;;;;;5090446;28;20449;-66
2023/08/18 07:10:44;;;;;;;4.43;4.13;;;22.90;99.90;;;;;;5090568;28;20486;-66
2023/08/18 07:13:11;;;;;;;4.90;4.50;;;23.10;99.90;;;;;;5090402;28;20845;-66
2023/08/18 07:15:38;;;;;;;5.43;4.93;;;23.20;99.90;;;;;;5090486;28;20458;-66
2023/08/18 07:18:07;;;;;;;5.30;4.27;;;23.30;99.90;;;;;;5087843;28;20452;-66
2023/08/18 07:20:34;;;;;;;4.13;3.90;;;23.40;99.90;;;;;;5089957;28;20795;-66
2023/08/18 07:23:03;;;;;;;4.77;4.37;;;23.60;99.90;;;;;;5089616;28;21030;-66
2023/08/18 07:25:31;;;;;;;4.93;4.63;;;23.70;99.90;;;;;;5089055;28;20481;-66
2023/08/18 07:27:58;;;;;;;4.20;3.90;;;23.80;99.90;;;;;;5088878;28;20530;-66
2023/08/18 07:30:25;;;;;;;4.30;4.00;;;23.90;99.90;;;;;;5081460;28;20486;-66
2023/08/18 07:32:54;;;;;;;4.63;4.20;;;24.00;99.90;;;;;;5069513;28;20491;-67
2023/08/18 07:35:21;;;;;;;4.53;4.23;;;24.10;99.90;;;;;;5086731;28;20534;-66
2023/08/18 07:37:47;;;;;;;4.20;3.87;;;24.20;99.90;;;;;;5088350;28;20529;-66
2023/08/18 07:40:16;;;;;;;4.90;4.60;;;24.30;99.90;;;;;;5088859;28;20455;-66
2023/08/18 07:42:44;;;;;;;4.87;4.47;;;24.50;99.90;;;;;;5087708;28;20470;-66
2023/08/18 07:45:11;;;;;;;4.50;4.10;;;24.60;99.90;;;;;;5098910;28;20453;-66
2023/08/18 07:47:38;;;;;;;3.40;3.20;;;24.70;99.90;;;;;;5108627;28;20538;-66
2023/08/18 07:50:07;;;;;;;4.30;3.90;;;24.80;99.90;;;;;;5109343;28;20481;-66
2023/08/18 07:52:34;;;;;;;4.23;3.60;;;24.80;99.90;;;;;;5109586;28;20885;-66
2023/08/18 07:55:02;;;;;;;4.37;3.97;;;24.90;99.90;;;;;;5108623;28;20458;-66
2023/08/18 07:57:30;;;;;;;4.50;4.10;;;25.00;99.90;;;;;;5088309;28;20533;-66
2023/08/18 07:59:57;;;;;;;4.20;3.90;;;25.00;99.90;;;;;;5068842;28;20469;-66
2023/08/18 08:02:24;;;;;;;3.70;3.40;;;25.10;99.90;;;;;;5073267;28;20560;-66
2023/08/18 08:04:52;;;;;;;4.20;3.90;;;25.10;99.90;;;;;;5088452;28;20469;-66
2023/08/18 08:07:19;;;;;;;4.37;4.00;;;25.20;99.90;;;;;;5087051;28;20505;-66
2023/08/18 08:09:46;;;;;;;3.87;3.63;;;25.30;99.90;;;;;;5088466;28;20483;-66
2023/08/18 08:12:13;;;;;;;4.13;3.93;;;25.30;99.90;;;;;;5088905;28;20455;-65
2023/08/18 08:14:42;;;;;;;4.20;3.90;;;25.40;99.90;;;;;;5088656;28;20528;-66
2023/08/18 08:17:09;;;;;;;3.90;3.60;;;25.40;99.90;;;;;;5087767;28;20462;-67
2023/08/18 08:19:36;;;;;;;3.90;3.60;;;25.50;99.90;;;;;;5088720;28;20515;-66
2023/08/18 08:22:08;;;;;;;4.30;4.00;;;25.50;99.90;;;;;;5088405;28;20469;-66
2023/08/18 08:24:35;;;;;;;3.57;3.27;;;25.50;99.90;;;;;;5087946;28;21175;-66
2023/08/18 08:27:02;;;;;;;4.10;3.70;;;25.50;99.90;;;;;;5087785;28;20451;-66
2023/08/18 08:29:28;;;;;;;4.30;3.87;;;25.50;99.90;;;;;;5088353;28;20827;-66
2023/08/18 08:31:57;;;;;;;3.77;3.10;;;25.50;99.90;;;;;;5088648;28;20567;-66
2023/08/18 08:34:23;;;;;;;5.20;3.63;;;25.50;99.90;;;;;;5088826;28;20457;-66
2023/08/18 08:36:51;;;;;;;3.67;3.37;;;25.60;99.90;;;;;;5087477;28;20449;-67
2023/08/18 08:39:18;;;;;;;3.87;3.57;;;25.60;99.90;;;;;;5088546;28;20454;-67
2023/08/18 08:41:45;;;;;;;3.93;3.43;;;25.70;99.90;;;;;;5077361;28;20817;-66
2023/08/18 08:44:12;;;;;;;3.90;3.60;;;25.70;99.90;;;;;;5068157;28;20447;-66
2023/08/18 08:46:40;;;;;;;3.47;3.03;;;25.70;99.90;;;;;;5067046;28;20458;-66
2023/08/18 08:49:09;;;;;;;4.30;4.00;;;25.80;99.90;;;;;;5086803;28;20454;-66
2023/08/18 08:51:40;;;;;;;3.27;3.00;;;25.90;99.90;;;;;;5088049;28;20527;-66
2023/08/18 08:54:11;;;;;;;3.27;3.07;;;26.00;99.90;;;;;;5088516;28;20480;-66
2023/08/18 08:56:40;;;;;;;2.77;2.57;;;26.10;99.90;;;;;;5087266;28;20463;-66
2023/08/18 08:59:07;;;;;;;3.13;2.93;;;26.20;99.90;;;;;;5088249;28;20461;-67
2023/08/18 09:01:35;;;;;;;2.73;2.63;;;26.30;99.90;;;;;;5088020;28;20939;-66
2023/08/18 09:04:04;;;;;;;2.60;2.40;;;26.40;99.90;;;;;;5086559;28;20546;-66
2023/08/18 09:06:33;;;;;;;3.13;2.70;;;26.60;99.90;;;;;;5094179;28;21041;-67
2023/08/18 09:09:00;;;;;;;3.43;2.80;;;26.70;99.90;;;;;;5107784;28;20452;-67
2023/08/18 09:11:40;;;;;;;2.63;2.43;;;26.70;99.90;;;;;;5107918;28;20962;-67
2023/08/18 09:14:07;;;;;;;3.77;3.57;;;26.80;99.90;;;;;;5107673;28;20489;-67
2023/08/18 09:16:34;;;;;;;2.60;2.50;;;26.90;99.90;;;;;;5106620;28;20457;-67
2023/08/18 09:19:02;;;;;;;3.27;2.97;;;27.00;99.90;;;;;;5107911;28;20537;-67
2023/08/18 09:21:29;;;;;;;3.07;2.63;;;27.10;99.90;;;;;;5108131;28;20526;-67
2023/08/18 09:23:57;;;;;;;3.57;3.37;;;27.20;99.90;;;;;;5107678;28;20447;-67
2023/08/18 09:26:25;;;;;;;4.03;3.00;;;27.20;99.90;;;;;;5106596;28;20457;-67
2023/08/18 09:28:52;;;;;;;5.47;2.60;;;27.30;99.90;;;;;;5107627;28;20454;-67
2023/08/18 09:31:20;;;;;;;3.30;3.00;;;27.30;99.90;;;;;;5107763;28;20495;-67
2023/08/18 09:33:46;;;;;;;3.33;3.13;;;27.30;99.90;;;;;;5107737;28;20453;-67
2023/08/18 09:36:14;;;;;;;3.00;2.80;;;27.30;99.90;;;;;;5106614;28;20941;-67
2023/08/18 09:38:41;;;;;;;3.13;2.93;;;27.40;99.90;;;;;;5107357;28;20534;-67
2023/08/18 09:41:10;;;;;;;3.70;3.40;;;27.50;99.90;;;;;;5107676;28;21164;-67
2023/08/18 09:43:36;;;;;;;3.27;3.07;;;27.50;99.90;;;;;;5107597;28;20537;-67
2023/08/18 09:46:04;;;;;;;3.20;3.00;;;27.50;99.90;;;;;;5106772;28;20459;-67
2023/08/18 09:48:35;;;;;;;2.80;2.60;;;27.60;99.90;;;;;;5107616;28;20979;-67
2023/08/18 09:51:02;;;;;;;2.37;2.27;;;27.60;99.90;;;;;;5106224;28;20488;-67
2023/08/18 09:53:32;;;;;;;3.00;2.80;;;27.60;99.90;;;;;;5107949;28;20563;-67
2023/08/18 09:56:04;;;;;;;2.47;2.37;;;27.70;99.90;;;;;;5106844;28;20451;-67
2023/08/18 09:58:41;;;;;;;3.10;2.90;;;27.80;99.90;;;;;;5107446;28;20874;-67
2023/08/18 10:01:10;;;;;;;2.70;2.50;;;27.80;99.90;;;;;;5107802;28;21011;-67
2023/08/18 10:03:38;;;;;;;3.27;2.97;;;27.80;99.10;;;;;;5111760;28;20547;-67
2023/08/18 10:06:07;;;;;;;2.90;2.70;;;27.90;99.60;;;;;;5110935;28;20451;-67
2023/08/18 10:08:34;;;;;;;4.10;2.40;;;27.90;98.80;;;;;;5111555;28;20457;-67
2023/08/18 10:11:02;;;;;;;2.63;2.53;;;27.90;98.20;;;;;;5111407;28;20479;-67
2023/08/18 10:13:33;;;;;;;3.20;2.90;;;27.90;99.10;;;;;;5111842;27;20477;-67
2023/08/18 10:16:02;;;;;;;2.70;2.30;;;27.90;98.10;;;;;;5110490;28;20464;-66
2023/08/18 10:18:30;;;;;;;3.20;2.90;;;28.00;98.20;;;;;;5111585;28;20447;-67
2023/08/18 10:20:57;;;;;;;2.97;2.47;;;28.00;99.20;;;;;;5111400;27;20457;-67
2023/08/18 10:23:25;;;;;;;4.33;2.50;;;28.00;99.90;;;;;;5109736;28;20472;-67
2023/08/18 10:25:53;;;;;;;3.83;2.77;;;28.10;99.90;;;;;;5110570;28;20455;-67
2023/08/18 10:28:21;;;;;;;2.80;2.47;;;28.20;98.90;;;;;;5110721;28;20544;-67
2023/08/18 10:30:52;;;;;;;2.53;2.43;;;28.30;99.20;;;;;;5110551;28;20488;-67
2023/08/18 10:33:31;;;;;;;2.50;2.40;;;28.30;99.70;;;;;;5110710;28;20476;-67
2023/08/18 10:35:59;;;;;;;3.10;2.73;;;28.50;98.00;;;;;;5109995;28;20458;-67
2023/08/18 10:38:30;;;;;;;4.07;2.47;;;28.50;98.20;;;;;;5110837;28;20458;-67
2023/08/18 10:40:57;;;;;;;2.40;2.30;;;28.50;98.40;;;;;;5111125;28;20816;-67
2023/08/18 10:43:27;;;;;;;2.50;2.30;;;28.50;97.70;;;;;;5110952;28;20563;-67
2023/08/18 10:45:59;;;;;;;4.83;2.87;;;28.60;98.20;;;;;;5104012;28;20454;-67
2023/08/18 10:48:32;;;;;;;2.77;2.57;;;28.60;97.80;;;;;;5088211;28;20939;-66
2023/08/18 10:50:59;;;;;;;2.50;2.30;;;28.60;96.90;;;;;;5090505;28;20584;-67
2023/08/18 10:53:27;;;;;;;3.10;2.60;;;28.60;97.90;;;;;;5090216;28;21043;-67
2023/08/18 10:55:54;;;;;;;2.60;2.20;;;28.70;98.00;;;;;;5089490;28;20533;-67
2023/08/18 10:58:21;;;;;;;2.70;2.20;;;28.70;96.20;;;;;;5089801;28;20450;-67
2023/08/18 11:00:49;;;;;;;2.80;2.60;;;28.80;97.20;;;;;;5090223;28;20439;-67
2023/08/18 11:03:16;;;;;;;2.40;2.20;;;28.90;96.10;;;;;;5089992;28;20470;-67
2023/08/18 11:05:44;;;;;;;2.63;2.13;;;28.90;94.70;;;;;;5089673;28;21259;-67
2023/08/18 11:08:11;;;;;;;5.90;2.77;;;29.00;94.10;;;;;;5089281;28;20827;-67
2023/08/18 11:10:39;;;;;;;2.73;2.53;;;29.00;96.20;;;;;;5090085;28;20493;-67
2023/08/18 11:13:06;;;;;;;2.27;2.17;;;29.10;94.70;;;;;;5088488;28;20474;-67
2023/08/18 11:15:33;;;;;;;2.07;1.87;;;29.10;95.50;;;;;;5089485;28;20571;-67
2023/08/18 11:18:00;;;;;;;3.63;2.60;;;29.20;95.20;;;;;;5088993;28;20456;-67
2023/08/18 11:20:27;;;;;;;3.70;2.60;;;29.30;95.00;;;;;;5089534;28;20445;-67
2023/08/18 11:22:57;;;;;;;2.80;2.60;;;29.40;94.70;;;;;;5089777;28;20569;-67
2023/08/18 11:25:25;;;;;;;2.93;2.20;;;29.50;93.90;;;;;;5089317;28;20534;-67
2023/08/18 11:27:52;;;;;;;4.07;2.17;;;29.60;93.10;;;;;;5088892;28;20455;-67
2023/08/18 11:30:20;;;;;;;3.10;1.70;;;29.70;93.40;;;;;;5089093;28;20533;-67
2023/08/18 11:32:47;;;;;;;3.10;2.17;;;29.80;91.80;;;;;;5089013;28;20561;-67
2023/08/18 11:35:15;;;;;;;2.03;1.57;;;29.90;89.40;;;;;;5089116;28;20451;-67
2023/08/18 11:37:43;;;;;;;3.30;2.50;;;30.00;90.00;;;;;;5088288;28;20456;-67
2023/08/18 11:40:13;;;;;;;2.07;1.80;;;30.00;89.80;;;;;;5089293;28;20483;-67
2023/08/18 11:42:41;;;;;;;1.83;1.73;;;30.10;90.50;;;;;;5089331;28;20474;-67
2023/08/18 11:45:10;;;;;;;2.10;1.80;;;30.20;87.50;;;;;;5089259;28;20449;-67
2023/08/18 11:47:37;;;;;;;2.37;2.10;;;30.30;85.70;;;;;;5088823;28;21292;-67
2023/08/18 11:50:05;;;;;;;1.60;1.50;;;30.40;88.90;;;;;;5089371;28;21133;-67
2023/08/18 11:52:42;;;;;;;2.90;1.53;;;30.40;88.40;;;;;;5089421;28;20497;-67
2023/08/18 11:55:12;;;;;;;3.90;1.90;;;30.50;84.50;;;;;;5089072;28;20458;-66
2023/08/18 11:57:41;;;;;;;2.77;1.93;;;30.60;84.60;;;;;;5088408;28;20450;-67
2023/08/18 12:00:13;;;;;;;1.80;1.70;;;30.60;87.20;;;;;;5088601;28;20443;-67
2023/08/18 12:02:43;;;;;;;1.50;1.40;;;30.70;88.20;;;;;;5088986;28;20470;-67
2023/08/18 12:05:21;;;;;;;2.43;2.23;;;30.80;88.20;;;;;;5088707;28;20482;-67
2023/08/18 12:07:48;;;;;;;1.97;1.77;;;30.90;88.90;;;;;;5087971;28;20536;-67
2023/08/18 12:10:16;;;;;;;3.03;1.77;;;31.00;87.60;;;;;;5088400;28;20449;-67
2023/08/18 12:12:43;;;;;;;2.03;1.93;;;31.10;85.50;;;;;;5086021;28;20497;-67
2023/08/18 12:15:11;;;;;;;1.80;1.70;;;31.20;84.70;;;;;;5088410;28;20443;-67
2023/08/18 12:17:38;;;;;;;2.37;2.17;;;31.30;87.00;;;;;;5087477;28;20458;-67
2023/08/18 12:20:07;;;;;;;2.20;2.00;;;31.40;89.50;;;;;;5088406;28;20497;-67
2023/08/18 12:22:34;;;;;;;2.50;2.00;;;31.50;85.90;;;;;;5088025;28;20501;-67
2023/08/18 12:25:02;;;;;;;2.20;2.10;;;31.60;86.10;;;;;;5087423;28;20456;-67
2023/08/18 12:27:30;;;;;;;2.07;1.97;;;31.70;85.20;;;;;;5087462;28;20541;-67
2023/08/18 12:29:57;;;;;;;3.17;1.97;;;31.80;86.60;;;;;;5087689;28;21242;-67
2023/08/18 12:32:23;;;;;;;2.20;2.10;;;32.00;83.80;;;;;;5087670;28;20872;-67
2023/08/18 12:34:51;;;;;;;2.30;2.10;;;32.10;86.20;;;;;;5086917;28;21031;-68
2023/08/18 12:37:19;;;;;;;1.93;1.83;;;32.20;83.90;;;;;;5085686;28;20451;-67
2023/08/18 12:39:47;;;;;;;2.43;2.27;;;32.30;86.60;;;;;;5087072;28;20456;-67
2023/08/18 12:42:14;;;;;;;2.10;2.00;;;32.40;86.00;;;;;;5086241;28;20468;-67
2023/08/18 12:44:42;;;;;;;2.77;2.57;;;32.60;84.10;;;;;;5086935;28;20565;-67
2023/08/18 12:47:09;;;;;;;2.70;2.40;;;32.70;83.30;;;;;;5086341;28;20448;-67
2023/08/18 12:49:37;;;;;;;2.37;2.17;;;32.90;85.20;;;;;;5087221;28;21230;-67